sensor_id;sensor_type;location;lat;lon;timestamp;P1;durP1;ratioP1;P2;durP2;ratioP2
20908;SDS011;10614;53.198;6.570;2023-08-20T00:00:20;5.05;;;2.17;;
20908;SDS011;10614;53.198;6.570;2023-08-20T00:02:23;4.55;;;2.47;;
20908;SDS011;10614;53.198;6.570;2023-08-20T00:04:28;5.53;;;2.17;;
20908;SDS011;10614;53.198;6.570;2023-08-20T00:06:32;5.10;;;2.00;;
20908;SDS011;10614;53.198;6.570;2023-08-20T00:08:34;5.32;;;2.13;;
20908;SDS011;10614;53.198;6.570;2023-08-20T00:10:36;5.60;;;2.22;;
20908;SDS011;10614;53.198;6.570;2023-08-20T00:12:38;6.07;;;2.38;;
20908;SDS011;10614;53.198;6.570;2023-08-20T00:14:52;7.72;;;2.78;;
20908;SDS011;10614;53.198;6.570;2023-08-20T00:16:55;5.50;;;2.90;;
20908;SDS011;10614;53.198;6.570;2023-08-20T00:18:58;6.60;;;2.60;;
20908;SDS011;10614;53.198;6.570;2023-08-20T00:21:01;7.82;;;2.47;;
20908;SDS011;10614;53.198;6.570;2023-08-20T00:23:04;12.07;;;8.38;;
20908;SDS011;10614;53.198;6.570;2023-08-20T00:25:07;12.98;;;7.85;;
20908;SDS011;10614;53.198;6.570;2023-08-20T00:27:10;11.77;;;7.22;;
20908;SDS011;10614;53.198;6.570;2023-08-20T00:29:10;9.05;;;5.85;;
20908;SDS011;10614;53.198;6.570;2023-08-20T00:31:12;8.50;;;5.38;;
20908;SDS011;10614;53.198;6.570;2023-08-20T00:33:14;7.60;;;4.28;;
20908;SDS011;10614;53.198;6.570;2023-08-20T00:35:16;6.78;;;3.70;;
20908;SDS011;10614;53.198;6.570;2023-08-20T00:37:18;5.78;;;3.42;;
20908;SDS011;10614;53.198;6.570;2023-08-20T00:39:20;7.13;;;3.60;;
20908;SDS011;10614;53.198;6.570;2023-08-20T00:41:23;5.70;;;3.20;;
20908;SDS011;10614;53.198;6.570;2023-08-20T00:43:25;4.95;;;3.05;;
20908;SDS011;10614;53.198;6.570;2023-08-20T00:45:26;5.75;;;2.90;;
20908;SDS011;10614;53.198;6.570;2023-08-20T00:47:29;5.82;;;2.97;;
20908;SDS011;10614;53.198;6.570;2023-08-20T00:49:33;6.40;;;2.80;;
20908;SDS011;10614;53.198;6.570;2023-08-20T00:51:39;8.80;;;3.50;;
20908;SDS011;10614;53.198;6.570;2023-08-20T00:53:42;8.38;;;3.60;;
20908;SDS011;10614;53.198;6.570;2023-08-20T00:55:45;8.80;;;3.92;;
20908;SDS011;10614;53.198;6.570;2023-08-20T00:57:47;7.43;;;3.65;;
20908;SDS011;10614;53.198;6.570;2023-08-20T00:59:48;6.93;;;3.38;;
20908;SDS011;10614;53.198;6.570;2023-08-20T01:01:51;6.50;;;3.20;;
20908;SDS011;10614;53.198;6.570;2023-08-20T01:03:54;8.20;;;3.58;;
20908;SDS011;10614;53.198;6.570;2023-08-20T01:05:58;8.40;;;3.15;;
20908;SDS011;10614;53.198;6.570;2023-08-20T01:08:13;6.25;;;2.78;;
20908;SDS011;10614;53.198;6.570;2023-08-20T01:10:25;6.20;;;3.05;;
20908;SDS011;10614;53.198;6.570;2023-08-20T01:12:34;6.53;;;3.00;;
20908;SDS011;10614;53.198;6.570;2023-08-20T01:14:36;5.93;;;2.90;;
20908;SDS011;10614;53.198;6.570;2023-08-20T01:16:37;5.25;;;3.20;;
20908;SDS011;10614;53.198;6.570;2023-08-20T01:18:39;6.63;;;2.90;;
20908;SDS011;10614;53.198;6.570;2023-08-20T01:20:44;5.40;;;2.75;;
20908;SDS011;10614;53.198;6.570;2023-08-20T01:22:52;7.97;;;3.20;;
20908;SDS011;10614;53.198;6.570;2023-08-20T01:25:17;5.72;;;2.72;;
20908;SDS011;10614;53.198;6.570;2023-08-20T01:27:36;6.05;;;2.90;;
20908;SDS011;10614;53.198;6.570;2023-08-20T01:29:46;4.95;;;2.70;;
20908;SDS011;10614;53.198;6.570;2023-08-20T01:31:49;5.17;;;2.47;;
20908;SDS011;10614;53.198;6.570;2023-08-20T01:33:52;5.30;;;2.60;;
20908;SDS011;10614;53.198;6.570;2023-08-20T01:35:54;7.10;;;2.63;;
20908;SDS011;10614;53.198;6.570;2023-08-20T01:37:56;7.32;;;2.95;;
20908;SDS011;10614;53.198;6.570;2023-08-20T01:39:58;3.95;;;2.42;;
20908;SDS011;10614;53.198;6.570;2023-08-20T01:41:58;3.95;;;2.33;;
20908;SDS011;10614;53.198;6.570;2023-08-20T01:44:00;4.60;;;2.50;;
20908;SDS011;10614;53.198;6.570;2023-08-20T01:46:03;5.50;;;2.47;;
20908;SDS011;10614;53.198;6.570;2023-08-20T01:48:06;4.75;;;2.63;;
20908;SDS011;10614;53.198;6.570;2023-08-20T01:50:08;5.85;;;2.65;;
20908;SDS011;10614;53.198;6.570;2023-08-20T01:52:10;7.18;;;2.75;;
20908;SDS011;10614;53.198;6.570;2023-08-20T01:54:12;4.53;;;2.60;;
20908;SDS011;10614;53.198;6.570;2023-08-20T01:56:14;5.50;;;2.60;;
20908;SDS011;10614;53.198;6.570;2023-08-20T01:58:16;8.93;;;3.20;;
20908;SDS011;10614;53.198;6.570;2023-08-20T02:00:18;8.65;;;2.60;;
20908;SDS011;10614;53.198;6.570;2023-08-20T02:02:21;5.00;;;2.55;;
20908;SDS011;10614;53.198;6.570;2023-08-20T02:04:22;4.60;;;2.60;;
20908;SDS011;10614;53.198;6.570;2023-08-20T02:06:24;7.63;;;3.47;;
20908;SDS011;10614;53.198;6.570;2023-08-20T02:08:26;7.63;;;3.10;;
20908;SDS011;10614;53.198;6.570;2023-08-20T02:10:27;6.43;;;3.35;;
20908;SDS011;10614;53.198;6.570;2023-08-20T02:12:29;6.03;;;3.00;;
20908;SDS011;10614;53.198;6.570;2023-08-20T02:14:31;7.28;;;3.60;;
20908;SDS011;10614;53.198;6.570;2023-08-20T02:16:34;5.30;;;3.38;;
20908;SDS011;10614;53.198;6.570;2023-08-20T02:18:38;6.82;;;3.88;;
20908;SDS011;10614;53.198;6.570;2023-08-20T02:20:43;7.10;;;3.70;;
20908;SDS011;10614;53.198;6.570;2023-08-20T02:22:44;6.30;;;3.80;;
20908;SDS011;10614;53.198;6.570;2023-08-20T02:24:46;5.90;;;3.47;;
20908;SDS011;10614;53.198;6.570;2023-08-20T02:26:48;5.40;;;3.15;;
20908;SDS011;10614;53.198;6.570;2023-08-20T02:28:50;7.18;;;3.45;;
20908;SDS011;10614;53.198;6.570;2023-08-20T02:30:52;9.88;;;4.85;;
20908;SDS011;10614;53.198;6.570;2023-08-20T02:32:54;7.15;;;5.05;;
20908;SDS011;10614;53.198;6.570;2023-08-20T02:34:57;8.85;;;5.10;;
20908;SDS011;10614;53.198;6.570;2023-08-20T02:36:58;13.13;;;5.88;;
20908;SDS011;10614;53.198;6.570;2023-08-20T02:39:00;9.65;;;5.82;;
20908;SDS011;10614;53.198;6.570;2023-08-20T02:41:03;10.07;;;6.40;;
20908;SDS011;10614;53.198;6.570;2023-08-20T02:43:05;14.25;;;7.30;;
20908;SDS011;10614;53.198;6.570;2023-08-20T02:45:07;9.15;;;5.75;;
20908;SDS011;10614;53.198;6.570;2023-08-20T02:47:11;11.40;;;5.68;;
20908;SDS011;10614;53.198;6.570;2023-08-20T02:49:12;9.98;;;5.50;;
20908;SDS011;10614;53.198;6.570;2023-08-20T02:51:16;12.70;;;5.80;;
20908;SDS011;10614;53.198;6.570;2023-08-20T02:53:17;8.73;;;5.55;;
20908;SDS011;10614;53.198;6.570;2023-08-20T02:55:19;10.07;;;6.13;;
20908;SDS011;10614;53.198;6.570;2023-08-20T02:57:22;9.90;;;5.90;;
20908;SDS011;10614;53.198;6.570;2023-08-20T02:59:23;9.20;;;5.68;;
20908;SDS011;10614;53.198;6.570;2023-08-20T03:01:25;13.50;;;5.85;;
20908;SDS011;10614;53.198;6.570;2023-08-20T03:03:28;9.48;;;5.45;;
20908;SDS011;10614;53.198;6.570;2023-08-20T03:05:30;10.05;;;6.10;;
20908;SDS011;10614;53.198;6.570;2023-08-20T03:07:33;13.15;;;7.35;;
20908;SDS011;10614;53.198;6.570;2023-08-20T03:09:35;12.25;;;6.07;;
20908;SDS011;10614;53.198;6.570;2023-08-20T03:11:37;9.32;;;6.15;;
20908;SDS011;10614;53.198;6.570;2023-08-20T03:13:38;11.90;;;6.13;;
20908;SDS011;10614;53.198;6.570;2023-08-20T03:15:40;10.85;;;5.97;;
20908;SDS011;10614;53.198;6.570;2023-08-20T03:17:42;10.65;;;6.22;;
20908;SDS011;10614;53.198;6.570;2023-08-20T03:19:53;9.98;;;5.93;;
20908;SDS011;10614;53.198;6.570;2023-08-20T03:21:56;9.00;;;4.93;;
20908;SDS011;10614;53.198;6.570;2023-08-20T03:23:59;8.95;;;5.32;;
20908;SDS011;10614;53.198;6.570;2023-08-20T03:26:01;9.90;;;5.18;;
20908;SDS011;10614;53.198;6.570;2023-08-20T03:28:02;9.80;;;5.45;;
20908;SDS011;10614;53.198;6.570;2023-08-20T03:30:05;10.23;;;5.40;;
20908;SDS011;10614;53.198;6.570;2023-08-20T03:32:07;7.90;;;5.38;;
20908;SDS011;10614;53.198;6.570;2023-08-20T03:34:08;9.90;;;5.22;;
20908;SDS011;10614;53.198;6.570;2023-08-20T03:36:10;10.52;;;4.70;;
20908;SDS011;10614;53.198;6.570;2023-08-20T03:38:12;8.82;;;4.80;;
20908;SDS011;10614;53.198;6.570;2023-08-20T03:40:15;7.78;;;5.00;;
20908;SDS011;10614;53.198;6.570;2023-08-20T03:42:18;8.00;;;4.82;;
20908;SDS011;10614;53.198;6.570;2023-08-20T03:44:20;8.45;;;4.50;;
20908;SDS011;10614;53.198;6.570;2023-08-20T03:46:21;7.72;;;5.22;;
20908;SDS011;10614;53.198;6.570;2023-08-20T03:48:23;7.82;;;4.90;;
20908;SDS011;10614;53.198;6.570;2023-08-20T03:50:25;8.73;;;4.90;;
20908;SDS011;10614;53.198;6.570;2023-08-20T03:52:26;10.82;;;5.25;;
20908;SDS011;10614;53.198;6.570;2023-08-20T03:54:28;10.80;;;5.60;;
20908;SDS011;10614;53.198;6.570;2023-08-20T03:56:30;11.23;;;5.75;;
20908;SDS011;10614;53.198;6.570;2023-08-20T03:58:32;10.27;;;4.93;;
20908;SDS011;10614;53.198;6.570;2023-08-20T04:00:34;10.35;;;5.72;;
20908;SDS011;10614;53.198;6.570;2023-08-20T04:02:36;13.25;;;5.57;;
20908;SDS011;10614;53.198;6.570;2023-08-20T04:04:37;12.43;;;5.75;;
20908;SDS011;10614;53.198;6.570;2023-08-20T04:06:38;9.30;;;5.40;;
20908;SDS011;10614;53.198;6.570;2023-08-20T04:08:40;12.02;;;5.50;;
20908;SDS011;10614;53.198;6.570;2023-08-20T04:10:44;12.07;;;5.57;;
20908;SDS011;10614;53.198;6.570;2023-08-20T04:12:48;7.68;;;4.43;;
20908;SDS011;10614;53.198;6.570;2023-08-20T04:14:49;9.40;;;4.80;;
20908;SDS011;10614;53.198;6.570;2023-08-20T04:16:51;12.68;;;5.80;;
20908;SDS011;10614;53.198;6.570;2023-08-20T04:18:53;12.13;;;6.20;;
20908;SDS011;10614;53.198;6.570;2023-08-20T04:20:55;12.52;;;5.95;;
20908;SDS011;10614;53.198;6.570;2023-08-20T04:22:57;7.63;;;4.90;;
20908;SDS011;10614;53.198;6.570;2023-08-20T04:24:59;10.13;;;4.55;;
20908;SDS011;10614;53.198;6.570;2023-08-20T04:27:00;7.07;;;4.07;;
20908;SDS011;10614;53.198;6.570;2023-08-20T04:29:03;7.70;;;4.22;;
20908;SDS011;10614;53.198;6.570;2023-08-20T04:31:05;7.40;;;4.27;;
20908;SDS011;10614;53.198;6.570;2023-08-20T04:33:07;7.25;;;4.68;;
20908;SDS011;10614;53.198;6.570;2023-08-20T04:35:09;8.20;;;4.68;;
20908;SDS011;10614;53.198;6.570;2023-08-20T04:37:11;6.82;;;4.60;;
20908;SDS011;10614;53.198;6.570;2023-08-20T04:39:13;10.68;;;5.53;;
20908;SDS011;10614;53.198;6.570;2023-08-20T04:41:14;8.55;;;4.70;;
20908;SDS011;10614;53.198;6.570;2023-08-20T04:43:16;11.65;;;5.80;;
20908;SDS011;10614;53.198;6.570;2023-08-20T04:45:18;13.25;;;6.32;;
20908;SDS011;10614;53.198;6.570;2023-08-20T04:47:20;14.55;;;6.50;;
20908;SDS011;10614;53.198;6.570;2023-08-20T04:49:21;15.98;;;6.75;;
20908;SDS011;10614;53.198;6.570;2023-08-20T04:51:26;10.38;;;5.75;;
20908;SDS011;10614;53.198;6.570;2023-08-20T04:53:27;10.35;;;5.60;;
20908;SDS011;10614;53.198;6.570;2023-08-20T04:55:29;9.20;;;4.75;;
20908;SDS011;10614;53.198;6.570;2023-08-20T04:57:31;8.30;;;5.55;;
20908;SDS011;10614;53.198;6.570;2023-08-20T04:59:33;9.10;;;5.15;;
20908;SDS011;10614;53.198;6.570;2023-08-20T05:01:37;8.63;;;5.25;;
20908;SDS011;10614;53.198;6.570;2023-08-20T05:03:39;9.55;;;4.95;;
20908;SDS011;10614;53.198;6.570;2023-08-20T05:05:41;10.10;;;5.22;;
20908;SDS011;10614;53.198;6.570;2023-08-20T05:07:43;8.88;;;4.63;;
20908;SDS011;10614;53.198;6.570;2023-08-20T05:09:44;7.57;;;4.47;;
20908;SDS011;10614;53.198;6.570;2023-08-20T05:11:45;8.35;;;5.25;;
20908;SDS011;10614;53.198;6.570;2023-08-20T05:13:47;7.72;;;4.22;;
20908;SDS011;10614;53.198;6.570;2023-08-20T05:15:50;8.13;;;4.38;;
20908;SDS011;10614;53.198;6.570;2023-08-20T05:17:54;8.10;;;4.45;;
20908;SDS011;10614;53.198;6.570;2023-08-20T05:19:57;7.97;;;4.55;;
20908;SDS011;10614;53.198;6.570;2023-08-20T05:21:58;7.88;;;4.88;;
20908;SDS011;10614;53.198;6.570;2023-08-20T05:23:59;7.03;;;3.72;;
20908;SDS011;10614;53.198;6.570;2023-08-20T05:26:01;6.43;;;4.15;;
20908;SDS011;10614;53.198;6.570;2023-08-20T05:28:03;7.35;;;4.20;;
20908;SDS011;10614;53.198;6.570;2023-08-20T05:30:06;8.13;;;4.20;;
20908;SDS011;10614;53.198;6.570;2023-08-20T05:32:09;8.38;;;4.70;;
20908;SDS011;10614;53.198;6.570;2023-08-20T05:34:11;6.57;;;4.93;;
20908;SDS011;10614;53.198;6.570;2023-08-20T05:36:13;7.70;;;4.10;;
20908;SDS011;10614;53.198;6.570;2023-08-20T05:38:15;6.95;;;3.90;;
20908;SDS011;10614;53.198;6.570;2023-08-20T05:40:17;10.57;;;5.25;;
20908;SDS011;10614;53.198;6.570;2023-08-20T05:42:18;9.57;;;5.30;;
20908;SDS011;10614;53.198;6.570;2023-08-20T05:44:21;11.23;;;5.65;;
20908;SDS011;10614;53.198;6.570;2023-08-20T05:46:22;7.90;;;5.13;;
20908;SDS011;10614;53.198;6.570;2023-08-20T05:48:23;9.77;;;5.78;;
20908;SDS011;10614;53.198;6.570;2023-08-20T05:50:26;10.38;;;5.50;;
20908;SDS011;10614;53.198;6.570;2023-08-20T05:52:28;11.50;;;5.80;;
20908;SDS011;10614;53.198;6.570;2023-08-20T05:54:30;10.70;;;5.47;;
20908;SDS011;10614;53.198;6.570;2023-08-20T05:56:32;8.50;;;5.03;;
20908;SDS011;10614;53.198;6.570;2023-08-20T05:58:33;11.05;;;5.53;;
20908;SDS011;10614;53.198;6.570;2023-08-20T06:00:35;12.93;;;5.97;;
20908;SDS011;10614;53.198;6.570;2023-08-20T06:02:37;12.25;;;5.88;;
20908;SDS011;10614;53.198;6.570;2023-08-20T06:04:39;11.52;;;5.72;;
20908;SDS011;10614;53.198;6.570;2023-08-20T06:06:42;10.35;;;6.05;;
20908;SDS011;10614;53.198;6.570;2023-08-20T06:08:44;10.30;;;5.45;;
20908;SDS011;10614;53.198;6.570;2023-08-20T06:10:45;10.77;;;5.32;;
20908;SDS011;10614;53.198;6.570;2023-08-20T06:12:47;11.32;;;5.97;;
20908;SDS011;10614;53.198;6.570;2023-08-20T06:14:49;10.43;;;4.80;;
20908;SDS011;10614;53.198;6.570;2023-08-20T06:16:51;8.85;;;4.88;;
20908;SDS011;10614;53.198;6.570;2023-08-20T06:18:52;10.10;;;4.80;;
20908;SDS011;10614;53.198;6.570;2023-08-20T06:20:54;8.55;;;4.90;;
20908;SDS011;10614;53.198;6.570;2023-08-20T06:22:58;11.13;;;5.53;;
20908;SDS011;10614;53.198;6.570;2023-08-20T06:24:59;11.40;;;5.72;;
20908;SDS011;10614;53.198;6.570;2023-08-20T06:27:02;9.27;;;4.97;;
20908;SDS011;10614;53.198;6.570;2023-08-20T06:29:03;11.45;;;6.00;;
20908;SDS011;10614;53.198;6.570;2023-08-20T06:31:05;13.13;;;6.53;;
20908;SDS011;10614;53.198;6.570;2023-08-20T06:33:06;9.18;;;5.22;;
20908;SDS011;10614;53.198;6.570;2023-08-20T06:35:08;8.15;;;5.15;;
20908;SDS011;10614;53.198;6.570;2023-08-20T06:37:11;8.38;;;4.78;;
20908;SDS011;10614;53.198;6.570;2023-08-20T06:39:14;8.82;;;5.03;;
20908;SDS011;10614;53.198;6.570;2023-08-20T06:41:16;11.25;;;6.75;;
20908;SDS011;10614;53.198;6.570;2023-08-20T06:43:19;13.98;;;6.65;;
20908;SDS011;10614;53.198;6.570;2023-08-20T06:45:20;12.75;;;6.32;;
20908;SDS011;10614;53.198;6.570;2023-08-20T06:47:22;10.13;;;5.35;;
20908;SDS011;10614;53.198;6.570;2023-08-20T06:49:24;15.80;;;6.60;;
20908;SDS011;10614;53.198;6.570;2023-08-20T06:51:25;11.70;;;5.80;;
20908;SDS011;10614;53.198;6.570;2023-08-20T06:53:28;8.88;;;4.55;;
20908;SDS011;10614;53.198;6.570;2023-08-20T06:55:31;10.48;;;5.05;;
20908;SDS011;10614;53.198;6.570;2023-08-20T06:57:33;10.75;;;5.57;;
20908;SDS011;10614;53.198;6.570;2023-08-20T06:59:34;10.88;;;4.97;;
20908;SDS011;10614;53.198;6.570;2023-08-20T07:01:36;11.75;;;4.85;;
20908;SDS011;10614;53.198;6.570;2023-08-20T07:03:38;16.40;;;6.20;;
20908;SDS011;10614;53.198;6.570;2023-08-20T07:05:40;13.25;;;5.50;;
20908;SDS011;10614;53.198;6.570;2023-08-20T07:07:42;11.52;;;5.85;;
20908;SDS011;10614;53.198;6.570;2023-08-20T07:09:44;13.15;;;6.18;;
20908;SDS011;10614;53.198;6.570;2023-08-20T07:11:47;15.48;;;5.78;;
20908;SDS011;10614;53.198;6.570;2023-08-20T07:13:48;13.05;;;5.15;;
20908;SDS011;10614;53.198;6.570;2023-08-20T07:15:50;14.52;;;5.65;;
20908;SDS011;10614;53.198;6.570;2023-08-20T07:17:52;12.05;;;5.80;;
20908;SDS011;10614;53.198;6.570;2023-08-20T07:19:54;11.15;;;5.80;;
20908;SDS011;10614;53.198;6.570;2023-08-20T07:21:55;13.43;;;5.72;;
20908;SDS011;10614;53.198;6.570;2023-08-20T07:23:57;12.43;;;5.15;;
20908;SDS011;10614;53.198;6.570;2023-08-20T07:26:05;10.65;;;5.13;;
20908;SDS011;10614;53.198;6.570;2023-08-20T07:28:09;15.25;;;5.60;;
20908;SDS011;10614;53.198;6.570;2023-08-20T07:30:12;11.38;;;5.43;;
20908;SDS011;10614;53.198;6.570;2023-08-20T07:32:13;9.85;;;4.25;;
20908;SDS011;10614;53.198;6.570;2023-08-20T07:34:15;12.38;;;4.75;;
20908;SDS011;10614;53.198;6.570;2023-08-20T07:36:17;11.77;;;4.82;;
20908;SDS011;10614;53.198;6.570;2023-08-20T07:38:19;15.35;;;6.07;;
20908;SDS011;10614;53.198;6.570;2023-08-20T07:40:21;14.15;;;5.50;;
20908;SDS011;10614;53.198;6.570;2023-08-20T07:42:22;13.50;;;5.22;;
20908;SDS011;10614;53.198;6.570;2023-08-20T07:44:26;11.40;;;4.45;;
20908;SDS011;10614;53.198;6.570;2023-08-20T07:46:28;10.95;;;4.15;;
20908;SDS011;10614;53.198;6.570;2023-08-20T07:48:30;14.88;;;5.25;;
20908;SDS011;10614;53.198;6.570;2023-08-20T07:50:30;14.13;;;4.82;;
20908;SDS011;10614;53.198;6.570;2023-08-20T07:52:32;11.60;;;4.85;;
20908;SDS011;10614;53.198;6.570;2023-08-20T07:54:34;13.52;;;4.82;;
20908;SDS011;10614;53.198;6.570;2023-08-20T07:56:36;14.70;;;4.20;;
20908;SDS011;10614;53.198;6.570;2023-08-20T07:58:38;12.95;;;4.38;;
20908;SDS011;10614;53.198;6.570;2023-08-20T08:00:42;11.98;;;4.82;;
20908;SDS011;10614;53.198;6.570;2023-08-20T08:02:44;14.82;;;4.82;;
20908;SDS011;10614;53.198;6.570;2023-08-20T08:04:45;13.88;;;4.70;;
20908;SDS011;10614;53.198;6.570;2023-08-20T08:06:48;15.65;;;4.57;;
20908;SDS011;10614;53.198;6.570;2023-08-20T08:08:50;15.02;;;5.07;;
20908;SDS011;10614;53.198;6.570;2023-08-20T08:10:52;9.68;;;3.97;;
20908;SDS011;10614;53.198;6.570;2023-08-20T08:12:54;10.77;;;3.40;;
20908;SDS011;10614;53.198;6.570;2023-08-20T08:14:55;9.10;;;3.28;;
20908;SDS011;10614;53.198;6.570;2023-08-20T08:16:58;8.43;;;3.10;;
20908;SDS011;10614;53.198;6.570;2023-08-20T08:19:00;8.90;;;3.47;;
20908;SDS011;10614;53.198;6.570;2023-08-20T08:21:02;9.23;;;3.38;;
20908;SDS011;10614;53.198;6.570;2023-08-20T08:23:04;8.50;;;3.45;;
20908;SDS011;10614;53.198;6.570;2023-08-20T08:25:05;8.35;;;3.20;;
20908;SDS011;10614;53.198;6.570;2023-08-20T08:27:06;11.75;;;3.13;;
20908;SDS011;10614;53.198;6.570;2023-08-20T08:29:08;9.65;;;2.65;;
20908;SDS011;10614;53.198;6.570;2023-08-20T08:31:09;8.23;;;2.92;;
20908;SDS011;10614;53.198;6.570;2023-08-20T08:33:12;8.82;;;2.90;;
20908;SDS011;10614;53.198;6.570;2023-08-20T08:35:14;8.32;;;2.83;;
20908;SDS011;10614;53.198;6.570;2023-08-20T08:37:16;11.85;;;3.15;;
20908;SDS011;10614;53.198;6.570;2023-08-20T08:39:18;8.32;;;3.17;;
20908;SDS011;10614;53.198;6.570;2023-08-20T08:41:21;8.43;;;2.83;;
20908;SDS011;10614;53.198;6.570;2023-08-20T08:43:24;8.20;;;2.50;;
20908;SDS011;10614;53.198;6.570;2023-08-20T08:45:27;9.25;;;2.60;;
20908;SDS011;10614;53.198;6.570;2023-08-20T08:47:29;8.48;;;2.67;;
20908;SDS011;10614;53.198;6.570;2023-08-20T08:49:33;10.57;;;2.80;;
20908;SDS011;10614;53.198;6.570;2023-08-20T08:51:36;11.48;;;2.83;;
20908;SDS011;10614;53.198;6.570;2023-08-20T08:53:38;13.80;;;3.55;;
20908;SDS011;10614;53.198;6.570;2023-08-20T08:55:40;10.02;;;2.38;;
20908;SDS011;10614;53.198;6.570;2023-08-20T08:57:42;11.77;;;2.95;;
20908;SDS011;10614;53.198;6.570;2023-08-20T08:59:43;8.63;;;2.20;;
20908;SDS011;10614;53.198;6.570;2023-08-20T09:01:45;8.23;;;2.20;;
20908;SDS011;10614;53.198;6.570;2023-08-20T09:03:48;9.85;;;2.35;;
20908;SDS011;10614;53.198;6.570;2023-08-20T09:05:54;8.98;;;2.67;;
20908;SDS011;10614;53.198;6.570;2023-08-20T09:07:56;10.70;;;3.05;;
20908;SDS011;10614;53.198;6.570;2023-08-20T09:09:58;8.70;;;2.30;;
20908;SDS011;10614;53.198;6.570;2023-08-20T09:12:00;11.07;;;2.45;;
20908;SDS011;10614;53.198;6.570;2023-08-20T09:14:20;7.88;;;2.10;;
20908;SDS011;10614;53.198;6.570;2023-08-20T09:18:32;11.63;;;2.53;;
20908;SDS011;10614;53.198;6.570;2023-08-20T09:22:49;10.13;;;2.53;;
20908;SDS011;10614;53.198;6.570;2023-08-20T09:24:52;6.07;;;1.90;;
20908;SDS011;10614;53.198;6.570;2023-08-20T09:26:56;6.47;;;1.52;;
20908;SDS011;10614;53.198;6.570;2023-08-20T09:31:10;10.70;;;2.20;;
20908;SDS011;10614;53.198;6.570;2023-08-20T09:33:12;8.77;;;2.20;;
20908;SDS011;10614;53.198;6.570;2023-08-20T09:35:17;10.32;;;2.22;;
20908;SDS011;10614;53.198;6.570;2023-08-20T09:37:20;6.93;;;1.95;;
20908;SDS011;10614;53.198;6.570;2023-08-20T09:39:24;5.72;;;1.70;;
20908;SDS011;10614;53.198;6.570;2023-08-20T09:41:29;8.35;;;1.70;;
20908;SDS011;10614;53.198;6.570;2023-08-20T09:43:31;8.88;;;2.00;;
20908;SDS011;10614;53.198;6.570;2023-08-20T09:45:34;8.77;;;1.75;;
20908;SDS011;10614;53.198;6.570;2023-08-20T09:47:38;8.48;;;2.17;;
20908;SDS011;10614;53.198;6.570;2023-08-20T09:49:44;11.05;;;2.45;;
20908;SDS011;10614;53.198;6.570;2023-08-20T09:51:46;12.55;;;2.30;;
20908;SDS011;10614;53.198;6.570;2023-08-20T09:53:56;6.43;;;1.73;;
20908;SDS011;10614;53.198;6.570;2023-08-20T09:56:07;7.80;;;2.17;;
20908;SDS011;10614;53.198;6.570;2023-08-20T09:58:15;10.43;;;2.25;;
20908;SDS011;10614;53.198;6.570;2023-08-20T10:00:21;9.93;;;2.40;;
20908;SDS011;10614;53.198;6.570;2023-08-20T10:02:22;7.40;;;1.65;;
20908;SDS011;10614;53.198;6.570;2023-08-20T10:04:25;9.85;;;2.00;;
20908;SDS011;10614;53.198;6.570;2023-08-20T10:06:27;8.88;;;2.30;;
20908;SDS011;10614;53.198;6.570;2023-08-20T10:08:30;8.20;;;1.95;;
20908;SDS011;10614;53.198;6.570;2023-08-20T10:10:32;11.38;;;2.38;;
20908;SDS011;10614;53.198;6.570;2023-08-20T10:12:36;11.45;;;2.58;;
20908;SDS011;10614;53.198;6.570;2023-08-20T10:14:39;12.10;;;2.17;;
20908;SDS011;10614;53.198;6.570;2023-08-20T10:16:40;10.55;;;2.25;;
20908;SDS011;10614;53.198;6.570;2023-08-20T10:18:42;6.10;;;1.80;;
20908;SDS011;10614;53.198;6.570;2023-08-20T10:20:46;5.37;;;1.80;;
20908;SDS011;10614;53.198;6.570;2023-08-20T10:22:49;12.75;;;2.60;;
20908;SDS011;10614;53.198;6.570;2023-08-20T10:24:52;8.90;;;2.33;;
20908;SDS011;10614;53.198;6.570;2023-08-20T10:27:07;8.40;;;2.20;;
20908;SDS011;10614;53.198;6.570;2023-08-20T10:31:45;8.07;;;1.83;;
20908;SDS011;10614;53.198;6.570;2023-08-20T10:33:50;8.88;;;2.38;;
20908;SDS011;10614;53.198;6.570;2023-08-20T10:35:58;10.73;;;2.22;;
20908;SDS011;10614;53.198;6.570;2023-08-20T10:38:11;6.38;;;1.90;;
20908;SDS011;10614;53.198;6.570;2023-08-20T10:40:14;6.25;;;1.70;;
20908;SDS011;10614;53.198;6.570;2023-08-20T10:42:42;11.88;;;2.53;;
20908;SDS011;10614;53.198;6.570;2023-08-20T10:44:58;7.35;;;2.08;;
20908;SDS011;10614;53.198;6.570;2023-08-20T10:47:03;8.80;;;2.10;;
20908;SDS011;10614;53.198;6.570;2023-08-20T10:49:08;13.13;;;2.55;;
20908;SDS011;10614;53.198;6.570;2023-08-20T10:51:10;9.13;;;2.15;;
20908;SDS011;10614;53.198;6.570;2023-08-20T10:53:12;7.18;;;2.08;;
20908;SDS011;10614;53.198;6.570;2023-08-20T10:55:15;10.98;;;2.30;;
20908;SDS011;10614;53.198;6.570;2023-08-20T10:57:17;7.07;;;2.05;;
20908;SDS011;10614;53.198;6.570;2023-08-20T10:59:22;5.43;;;1.55;;
20908;SDS011;10614;53.198;6.570;2023-08-20T11:01:25;13.18;;;2.00;;
20908;SDS011;10614;53.198;6.570;2023-08-20T11:03:27;7.28;;;1.70;;
20908;SDS011;10614;53.198;6.570;2023-08-20T11:05:28;5.53;;;1.52;;
20908;SDS011;10614;53.198;6.570;2023-08-20T11:07:30;6.95;;;1.85;;
20908;SDS011;10614;53.198;6.570;2023-08-20T11:09:34;6.32;;;1.30;;
20908;SDS011;10614;53.198;6.570;2023-08-20T11:11:40;8.80;;;1.90;;
20908;SDS011;10614;53.198;6.570;2023-08-20T11:13:42;8.05;;;1.92;;
20908;SDS011;10614;53.198;6.570;2023-08-20T11:15:43;6.97;;;1.80;;
20908;SDS011;10614;53.198;6.570;2023-08-20T11:17:47;9.45;;;1.70;;
20908;SDS011;10614;53.198;6.570;2023-08-20T11:19:49;6.72;;;1.70;;
20908;SDS011;10614;53.198;6.570;2023-08-20T11:21:52;10.43;;;1.85;;
20908;SDS011;10614;53.198;6.570;2023-08-20T11:23:53;5.70;;;1.30;;
20908;SDS011;10614;53.198;6.570;2023-08-20T11:25:56;6.32;;;1.60;;
20908;SDS011;10614;53.198;6.570;2023-08-20T11:27:57;5.53;;;1.83;;
20908;SDS011;10614;53.198;6.570;2023-08-20T11:29:58;5.30;;;1.67;;
20908;SDS011;10614;53.198;6.570;2023-08-20T11:32:00;8.75;;;1.83;;
20908;SDS011;10614;53.198;6.570;2023-08-20T11:34:04;6.22;;;1.58;;
20908;SDS011;10614;53.198;6.570;2023-08-20T11:36:07;6.72;;;1.55;;
20908;SDS011;10614;53.198;6.570;2023-08-20T11:38:09;6.38;;;1.40;;
20908;SDS011;10614;53.198;6.570;2023-08-20T11:40:11;9.60;;;1.65;;
20908;SDS011;10614;53.198;6.570;2023-08-20T11:42:13;4.78;;;1.40;;
20908;SDS011;10614;53.198;6.570;2023-08-20T11:44:19;7.63;;;1.60;;
20908;SDS011;10614;53.198;6.570;2023-08-20T11:46:22;5.13;;;1.45;;
20908;SDS011;10614;53.198;6.570;2023-08-20T11:48:24;9.02;;;1.88;;
20908;SDS011;10614;53.198;6.570;2023-08-20T11:50:27;10.35;;;1.70;;
20908;SDS011;10614;53.198;6.570;2023-08-20T11:52:30;4.97;;;1.42;;
20908;SDS011;10614;53.198;6.570;2023-08-20T11:54:33;6.75;;;1.45;;
20908;SDS011;10614;53.198;6.570;2023-08-20T11:56:35;9.43;;;1.63;;
20908;SDS011;10614;53.198;6.570;2023-08-20T11:58:38;6.63;;;1.40;;
20908;SDS011;10614;53.198;6.570;2023-08-20T12:00:40;5.80;;;1.20;;
20908;SDS011;10614;53.198;6.570;2023-08-20T12:02:43;7.50;;;1.60;;
20908;SDS011;10614;53.198;6.570;2023-08-20T12:04:43;5.60;;;1.58;;
20908;SDS011;10614;53.198;6.570;2023-08-20T12:07:02;5.88;;;1.50;;
20908;SDS011;10614;53.198;6.570;2023-08-20T12:09:18;5.55;;;1.40;;
20908;SDS011;10614;53.198;6.570;2023-08-20T12:11:23;5.28;;;1.30;;
20908;SDS011;10614;53.198;6.570;2023-08-20T12:13:25;6.13;;;1.70;;
20908;SDS011;10614;53.198;6.570;2023-08-20T12:15:27;5.63;;;1.30;;
20908;SDS011;10614;53.198;6.570;2023-08-20T12:17:28;6.22;;;1.40;;
20908;SDS011;10614;53.198;6.570;2023-08-20T12:19:30;4.32;;;1.23;;
20908;SDS011;10614;53.198;6.570;2023-08-20T12:21:32;6.32;;;1.17;;
20908;SDS011;10614;53.198;6.570;2023-08-20T12:23:35;6.22;;;1.40;;
20908;SDS011;10614;53.198;6.570;2023-08-20T12:25:37;6.00;;;1.50;;